createdAt,value
2023-05-21T00:01:48.556Z,4.38
2023-05-21T00:04:15.071Z,5.34
2023-05-21T00:06:41.562Z,3.93
2023-05-21T00:09:08.086Z,2.86
2023-05-21T00:11:34.537Z,3.08
2023-05-21T00:14:00.940Z,3.06
2023-05-21T00:16:27.489Z,3.00
2023-05-21T00:18:54.300Z,3.32
2023-05-21T00:21:20.872Z,3.99
2023-05-21T00:23:47.326Z,5.10
2023-05-21T00:26:13.742Z,6.49
2023-05-21T00:28:40.128Z,6.97
2023-05-21T00:31:06.545Z,7.59
2023-05-21T00:33:32.987Z,7.29
2023-05-21T00:35:59.659Z,6.87
2023-05-21T00:38:26.150Z,6.45
2023-05-21T00:40:52.540Z,5.87
2023-05-21T00:43:18.957Z,6.48
2023-05-21T00:45:45.393Z,6.80
2023-05-21T00:48:11.856Z,5.73
2023-05-21T00:50:38.366Z,5.81
2023-05-21T00:53:04.762Z,6.43
2023-05-21T00:55:31.235Z,6.22
2023-05-21T00:57:57.680Z,6.66
2023-05-21T01:00:24.166Z,6.90
2023-05-21T01:02:50.717Z,7.68
2023-05-21T01:05:17.252Z,7.31
2023-05-21T01:07:43.719Z,7.11
2023-05-21T01:10:10.204Z,6.67
2023-05-21T01:12:36.696Z,6.28
2023-05-21T01:15:03.200Z,6.92
2023-05-21T01:17:29.627Z,6.58
2023-05-21T01:19:56.052Z,6.66
2023-05-21T01:22:22.460Z,6.65
2023-05-21T01:24:48.855Z,5.28
2023-05-21T01:27:15.281Z,4.14
2023-05-21T01:29:41.704Z,4.17
2023-05-21T01:32:08.174Z,4.67
2023-05-21T01:34:34.626Z,4.19
2023-05-21T01:37:01.018Z,4.34
2023-05-21T01:39:27.427Z,4.00
2023-05-21T01:41:53.827Z,4.08
2023-05-21T01:44:20.256Z,3.89
2023-05-21T01:46:46.771Z,3.93
2023-05-21T01:49:13.323Z,4.35
2023-05-21T01:51:39.734Z,4.74
2023-05-21T01:54:06.125Z,4.52
2023-05-21T01:56:32.583Z,4.26
2023-05-21T01:58:58.991Z,3.46
2023-05-21T02:01:25.521Z,3.63
2023-05-21T02:03:52.109Z,3.44
2023-05-21T02:06:18.575Z,3.15
2023-05-21T02:08:44.986Z,2.98
2023-05-21T02:11:11.419Z,3.16
2023-05-21T02:13:37.818Z,3.45
2023-05-21T02:16:04.300Z,3.15
2023-05-21T02:18:30.750Z,4.16
2023-05-21T02:20:57.153Z,4.37
2023-05-21T02:23:23.565Z,4.13
2023-05-21T02:25:49.993Z,3.78
2023-05-21T02:28:16.349Z,3.81
2023-05-21T02:30:42.808Z,3.32
2023-05-21T02:33:09.496Z,3.12
2023-05-21T02:35:36.100Z,3.15
2023-05-21T02:38:02.626Z,3.31
2023-05-21T02:40:29.033Z,3.85
2023-05-21T02:42:55.460Z,3.48
2023-05-21T02:45:21.893Z,3.14
2023-05-21T02:47:48.359Z,2.90
2023-05-21T02:50:14.815Z,2.85
2023-05-21T02:52:41.257Z,3.19
2023-05-21T02:55:07.692Z,3.38
2023-05-21T02:57:34.133Z,3.28
2023-05-21T03:00:00.601Z,3.05
2023-05-21T03:02:27.054Z,3.24
2023-05-21T03:04:53.504Z,3.58
2023-05-21T03:07:20.159Z,3.36
2023-05-21T03:09:46.732Z,6.24
2023-05-21T03:12:13.194Z,7.86
2023-05-21T03:14:39.604Z,8.42
2023-05-21T03:17:06.330Z,7.93
2023-05-21T03:19:33.047Z,8.39
2023-05-21T03:21:59.532Z,7.37
2023-05-21T03:24:26.030Z,6.59
2023-05-21T03:26:52.548Z,5.27
2023-05-21T03:29:18.926Z,4.02
2023-05-21T03:31:45.388Z,3.57
2023-05-21T03:34:11.889Z,3.86
2023-05-21T03:36:38.275Z,4.18
2023-05-21T03:39:04.761Z,4.34
2023-05-21T03:41:31.230Z,4.30
2023-05-21T03:43:57.644Z,4.83
2023-05-21T03:46:24.204Z,4.86
2023-05-21T03:48:50.686Z,4.93
2023-05-21T03:51:17.150Z,4.60
2023-05-21T03:53:43.633Z,4.68
2023-05-21T03:56:10.107Z,4.92
2023-05-21T03:58:36.532Z,4.81
2023-05-21T04:01:02.977Z,4.99
2023-05-21T04:03:29.596Z,5.24
2023-05-21T04:05:56.229Z,4.86
2023-05-21T04:08:22.699Z,4.70
2023-05-21T04:10:49.141Z,4.54
2023-05-21T04:13:15.597Z,4.32
2023-05-21T04:15:42.002Z,4.11
2023-05-21T04:18:08.477Z,4.57
2023-05-21T04:20:34.950Z,5.99
2023-05-21T04:23:01.352Z,6.32
2023-05-21T04:25:27.748Z,6.62
2023-05-21T04:27:54.158Z,6.07
2023-05-21T04:30:20.554Z,6.03
2023-05-21T04:32:47.007Z,5.96
2023-05-21T04:35:13.450Z,5.47
2023-05-21T04:37:39.845Z,5.65
2023-05-21T04:40:06.213Z,6.30
2023-05-21T04:42:32.622Z,6.62
2023-05-21T04:44:59.014Z,8.09
2023-05-21T04:47:25.485Z,8.66
2023-05-21T04:49:51.932Z,11.77
2023-05-21T04:52:18.359Z,11.37
2023-05-21T04:54:44.756Z,9.65
2023-05-21T04:57:11.213Z,9.68
2023-05-21T04:59:37.727Z,10.69
2023-05-21T05:02:04.117Z,10.53
2023-05-21T05:04:30.574Z,11.03
2023-05-21T05:06:56.970Z,11.88
2023-05-21T05:09:23.383Z,12.51
2023-05-21T05:11:49.785Z,12.21
2023-05-21T05:14:16.176Z,11.43
2023-05-21T05:16:42.593Z,10.63
2023-05-21T05:19:09.099Z,10.67
2023-05-21T05:21:35.607Z,10.53
2023-05-21T05:24:02.015Z,10.64
2023-05-21T05:26:28.510Z,10.71
2023-05-21T05:28:54.924Z,11.00
2023-05-21T05:31:21.374Z,10.91
2023-05-21T05:33:47.839Z,10.98
2023-05-21T05:36:14.258Z,10.77
2023-05-21T05:38:40.648Z,10.84
2023-05-21T05:41:07.095Z,11.37
2023-05-21T05:43:33.577Z,10.99
2023-05-21T05:46:00.009Z,11.23
2023-05-21T05:48:26.543Z,11.19
2023-05-21T05:50:52.946Z,12.80
2023-05-21T05:53:19.384Z,14.06
2023-05-21T05:55:45.788Z,15.03
2023-05-21T05:58:12.255Z,18.67
2023-05-21T06:00:38.645Z,24.39
2023-05-21T06:03:05.298Z,15.32
2023-05-21T06:05:31.942Z,14.60
2023-05-21T06:07:58.427Z,13.80
2023-05-21T06:10:24.810Z,14.29
2023-05-21T06:12:51.230Z,14.51
2023-05-21T06:15:17.625Z,15.11
2023-05-21T06:17:44.048Z,15.02
2023-05-21T06:20:10.543Z,16.80
2023-05-21T06:22:36.935Z,16.70
2023-05-21T06:25:03.361Z,14.55
2023-05-21T06:27:29.780Z,14.63
2023-05-21T06:29:56.228Z,14.98
2023-05-21T06:32:22.802Z,14.80
2023-05-21T06:34:49.294Z,15.47
2023-05-21T06:37:15.765Z,14.58
2023-05-21T06:39:42.217Z,14.76
2023-05-21T06:42:08.700Z,14.48
2023-05-21T06:44:35.120Z,14.20
2023-05-21T06:47:01.636Z,14.79
2023-05-21T06:49:28.031Z,14.77
2023-05-21T06:51:54.436Z,15.71
2023-05-21T06:54:20.826Z,15.99
2023-05-21T06:56:47.236Z,16.82
2023-05-21T06:59:13.668Z,17.16
2023-05-21T07:01:40.096Z,16.57
2023-05-21T07:04:06.570Z,15.90
2023-05-21T07:06:33.004Z,16.58
2023-05-21T07:08:59.443Z,15.61
2023-05-21T07:11:25.834Z,16.60
2023-05-21T07:13:52.251Z,16.36
2023-05-21T07:16:18.618Z,16.26
2023-05-21T07:18:45.052Z,15.29
2023-05-21T07:21:11.538Z,15.29
2023-05-21T07:23:37.912Z,15.89
2023-05-21T07:26:04.292Z,17.00
2023-05-21T07:28:30.711Z,17.24
2023-05-21T07:30:57.131Z,18.36
2023-05-21T07:33:23.506Z,17.86
2023-05-21T07:35:49.957Z,17.29
2023-05-21T07:38:16.389Z,16.60
2023-05-21T07:40:42.784Z,17.40
2023-05-21T07:43:09.162Z,18.09
2023-05-21T07:45:35.739Z,17.35
2023-05-21T07:48:02.497Z,16.74
2023-05-21T07:50:29.024Z,17.68
2023-05-21T07:52:55.467Z,17.90
2023-05-21T07:55:21.916Z,17.77
2023-05-21T07:57:48.355Z,18.50
2023-05-21T08:00:14.750Z,19.31
2023-05-21T08:02:41.298Z,20.06
2023-05-21T08:05:07.982Z,20.09
2023-05-21T08:07:34.483Z,20.36
2023-05-21T08:10:02.868Z,20.83
2023-05-21T08:12:29.545Z,19.48
2023-05-21T08:15:10.355Z,18.72
2023-05-21T08:17:36.819Z,19.24
2023-05-21T08:20:03.266Z,20.78
2023-05-21T08:22:29.733Z,20.60
2023-05-21T08:24:56.210Z,20.76
2023-05-21T08:27:22.666Z,20.67
2023-05-21T08:29:49.141Z,21.01
2023-05-21T08:32:15.654Z,20.69
2023-05-21T08:34:42.144Z,20.27
2023-05-21T08:37:08.555Z,19.17
2023-05-21T08:39:35.095Z,18.55
2023-05-21T08:42:01.635Z,19.12
2023-05-21T08:44:28.038Z,19.20
2023-05-21T08:46:54.455Z,19.99
2023-05-21T08:49:20.850Z,20.96
2023-05-21T08:51:47.279Z,20.71
2023-05-21T08:54:13.730Z,20.97
2023-05-21T08:56:40.145Z,22.48
2023-05-21T08:59:06.615Z,22.08
2023-05-21T09:01:33.048Z,22.62
2023-05-21T09:04:08.213Z,23.17
2023-05-21T09:06:39.024Z,23.00
2023-05-21T09:09:05.418Z,22.55
2023-05-21T09:11:31.881Z,22.16
2023-05-21T09:13:58.333Z,21.77
2023-05-21T09:16:24.765Z,21.77
2023-05-21T09:18:51.339Z,21.10
2023-05-21T09:21:17.732Z,20.59
2023-05-21T09:23:44.173Z,21.61
2023-05-21T09:26:10.896Z,23.07
2023-05-21T09:28:37.308Z,23.19
2023-05-21T09:31:03.784Z,22.86
2023-05-21T09:33:30.253Z,23.81
2023-05-21T09:35:56.685Z,23.86
2023-05-21T09:38:23.148Z,23.42
2023-05-21T09:40:49.579Z,22.35
2023-05-21T09:43:16.085Z,23.57
2023-05-21T09:45:42.659Z,23.58
2023-05-21T09:48:09.104Z,24.41
2023-05-21T09:50:35.705Z,23.74
2023-05-21T09:53:04.283Z,23.87
2023-05-21T09:55:30.766Z,24.23
2023-05-21T09:57:57.233Z,24.23
2023-05-21T10:00:23.730Z,24.04
2023-05-21T10:02:52.201Z,24.37
2023-05-21T10:05:18.625Z,23.76
2023-05-21T10:07:45.083Z,24.65
2023-05-21T10:10:11.557Z,25.02
2023-05-21T10:12:38.134Z,24.36
2023-05-21T10:15:04.662Z,24.60
2023-05-21T10:17:31.254Z,24.21
2023-05-21T10:19:57.778Z,24.81
2023-05-21T10:22:24.313Z,24.80
2023-05-21T10:24:50.770Z,25.07
2023-05-21T10:27:17.195Z,24.63
2023-05-21T10:29:43.660Z,23.07
2023-05-21T10:32:10.126Z,22.80
2023-05-21T10:34:36.567Z,24.34
2023-05-21T10:37:03.001Z,24.19
2023-05-21T10:39:29.537Z,23.94
2023-05-21T10:41:58.427Z,24.70
2023-05-21T10:44:25.631Z,25.02
2023-05-21T10:46:52.081Z,24.53
2023-05-21T10:49:18.609Z,22.81
2023-05-21T10:51:45.002Z,23.19
2023-05-21T10:54:11.423Z,23.07
2023-05-21T10:56:37.836Z,23.56
2023-05-21T10:59:04.291Z,23.27
2023-05-21T11:01:30.790Z,23.87
2023-05-21T11:03:57.303Z,23.65
2023-05-21T11:06:23.861Z,23.45
2023-05-21T11:08:51.011Z,23.36
2023-05-21T11:11:18.609Z,22.92
2023-05-21T11:13:45.045Z,22.18
2023-05-21T11:16:14.156Z,22.27
2023-05-21T11:18:40.587Z,21.22
2023-05-21T11:21:06.994Z,17.79
2023-05-21T11:23:33.424Z,17.28
2023-05-21T11:25:59.824Z,17.56
2023-05-21T11:28:26.353Z,20.64
2023-05-21T11:30:52.766Z,23.24
2023-05-21T11:33:19.202Z,23.50
2023-05-21T11:35:45.662Z,22.83
2023-05-21T11:38:12.059Z,23.75
2023-05-21T11:40:38.607Z,23.35
2023-05-21T11:43:05.099Z,23.51
2023-05-21T11:45:31.547Z,23.53
2023-05-21T11:47:58.058Z,25.80
2023-05-21T11:50:24.571Z,22.69
2023-05-21T11:52:51.113Z,22.88
2023-05-21T11:55:19.114Z,21.30
2023-05-21T11:57:45.499Z,21.49
2023-05-21T12:00:12.225Z,22.21
2023-05-21T12:02:38.780Z,20.84
2023-05-21T12:05:05.266Z,18.09
2023-05-21T12:07:31.750Z,15.38
2023-05-21T12:09:58.149Z,14.25
2023-05-21T12:12:24.618Z,15.44
2023-05-21T12:14:51.034Z,18.36
2023-05-21T12:17:17.418Z,17.43
2023-05-21T12:19:43.818Z,17.15
2023-05-21T12:22:10.236Z,16.06
2023-05-21T12:24:36.652Z,14.63
2023-05-21T12:27:03.112Z,12.73
2023-05-21T12:29:29.499Z,13.41
2023-05-21T12:31:55.966Z,14.20
2023-05-21T12:34:22.403Z,14.87
2023-05-21T12:36:48.791Z,16.17
2023-05-21T12:39:15.314Z,15.37
2023-05-21T12:41:41.804Z,14.47
2023-05-21T12:44:08.291Z,15.78
2023-05-21T12:46:34.702Z,16.13
2023-05-21T12:49:01.170Z,16.20
2023-05-21T12:51:27.582Z,16.89
2023-05-21T12:53:54.123Z,17.42
2023-05-21T12:56:20.518Z,15.37
2023-05-21T12:58:46.930Z,15.52
2023-05-21T13:01:13.423Z,15.93
2023-05-21T13:03:39.893Z,14.85
2023-05-21T13:06:06.346Z,15.53
2023-05-21T13:08:32.766Z,13.14
2023-05-21T13:10:59.169Z,13.04
2023-05-21T13:13:25.560Z,12.98
2023-05-21T13:15:52.087Z,12.63
2023-05-21T13:18:18.599Z,13.30
2023-05-21T13:20:45.113Z,14.38
2023-05-21T13:23:11.962Z,12.56
2023-05-21T13:25:38.456Z,10.16
2023-05-21T13:28:04.855Z,9.76
2023-05-21T13:30:31.301Z,10.41
2023-05-21T13:32:57.762Z,9.98
2023-05-21T13:35:24.188Z,12.44
2023-05-21T13:37:50.578Z,14.07
2023-05-21T13:40:17.076Z,12.27
2023-05-21T13:42:43.522Z,12.24
2023-05-21T13:45:09.992Z,12.54
2023-05-21T13:47:39.168Z,11.18
2023-05-21T13:50:06.627Z,12.13
2023-05-21T13:52:33.108Z,12.93
2023-05-21T13:54:59.519Z,13.55
2023-05-21T13:57:28.948Z,12.07
2023-05-21T13:59:55.441Z,12.36
2023-05-21T14:02:21.978Z,12.25
2023-05-21T14:04:48.493Z,12.79
2023-05-21T14:07:14.954Z,13.79
2023-05-21T14:09:41.478Z,15.71
2023-05-21T14:12:07.911Z,15.95
2023-05-21T14:14:34.353Z,14.59
2023-05-21T14:17:00.866Z,14.05
2023-05-21T14:19:27.429Z,13.39
2023-05-21T14:21:53.995Z,14.04
2023-05-21T14:24:20.439Z,13.32
2023-05-21T14:26:46.861Z,12.88
2023-05-21T14:29:13.278Z,12.43
2023-05-21T14:31:39.701Z,13.26
2023-05-21T14:34:06.127Z,13.39
2023-05-21T14:36:32.567Z,12.13
2023-05-21T14:38:58.995Z,11.88
2023-05-21T14:41:25.392Z,11.68
2023-05-21T14:43:51.951Z,12.21
2023-05-21T14:46:18.411Z,11.37
2023-05-21T14:48:44.835Z,10.77
2023-05-21T14:51:11.261Z,10.80
2023-05-21T14:53:37.710Z,10.81
2023-05-21T14:56:04.081Z,11.59
2023-05-21T14:58:30.550Z,12.34
2023-05-21T15:00:57.093Z,13.18
2023-05-21T15:03:23.595Z,12.35
2023-05-21T15:05:50.048Z,12.71
2023-05-21T15:08:16.466Z,12.56
2023-05-21T15:10:42.959Z,12.68
2023-05-21T15:13:09.340Z,12.51
2023-05-21T15:15:36.143Z,11.63
2023-05-21T15:18:02.877Z,11.45
2023-05-21T15:20:29.321Z,12.40
2023-05-21T15:23:05.098Z,13.68
2023-05-21T15:25:42.147Z,11.53
2023-05-21T15:28:08.555Z,11.54
2023-05-21T15:30:34.928Z,11.20
2023-05-21T15:33:01.357Z,12.78
2023-05-21T15:35:27.926Z,12.53
2023-05-21T15:37:54.470Z,12.65
2023-05-21T15:40:20.917Z,12.64
2023-05-21T15:42:47.326Z,11.21
2023-05-21T15:45:13.727Z,10.84
2023-05-21T15:47:42.579Z,10.84
2023-05-21T15:50:09.421Z,11.24
2023-05-21T15:52:35.895Z,11.27
2023-05-21T15:55:02.296Z,12.48
2023-05-21T15:57:28.769Z,11.29
2023-05-21T15:59:55.180Z,9.95
2023-05-21T16:02:21.674Z,8.42
2023-05-21T16:04:48.117Z,8.43
2023-05-21T16:07:14.541Z,8.58
2023-05-21T16:09:40.969Z,8.37
2023-05-21T16:12:07.359Z,7.12
2023-05-21T16:14:33.733Z,7.70
2023-05-21T16:17:00.262Z,11.55
2023-05-21T16:19:26.762Z,12.59
2023-05-21T16:21:53.193Z,14.79
2023-05-21T16:24:19.631Z,14.65
2023-05-21T16:26:46.091Z,14.00
2023-05-21T16:29:12.500Z,13.28
2023-05-21T16:31:38.974Z,13.23
2023-05-21T16:34:05.423Z,12.03
2023-05-21T16:36:31.835Z,11.60
2023-05-21T16:38:58.383Z,11.20
2023-05-21T16:41:24.802Z,9.81
2023-05-21T16:43:51.230Z,9.64
2023-05-21T16:46:19.020Z,9.62
2023-05-21T16:48:45.540Z,9.75
2023-05-21T16:51:11.972Z,9.40
2023-05-21T16:53:38.445Z,8.96
2023-05-21T16:56:05.032Z,9.24
2023-05-21T16:58:31.400Z,9.46
2023-05-21T17:00:57.782Z,8.06
2023-05-21T17:03:24.325Z,8.74
2023-05-21T17:05:50.915Z,8.29
2023-05-21T17:08:17.422Z,8.61
2023-05-21T17:10:43.855Z,7.92
2023-05-21T17:13:21.471Z,8.67
2023-05-21T17:15:48.933Z,8.22
2023-05-21T17:18:15.419Z,7.95
2023-05-21T17:20:41.775Z,7.73
2023-05-21T17:23:08.184Z,7.85
2023-05-21T17:25:34.891Z,7.66
2023-05-21T17:28:01.619Z,8.95
2023-05-21T17:30:28.048Z,8.38
2023-05-21T17:32:54.658Z,8.11
2023-05-21T17:35:21.098Z,8.70
2023-05-21T17:37:47.469Z,8.34
2023-05-21T17:40:13.843Z,8.72
2023-05-21T17:42:40.294Z,8.70
2023-05-21T17:45:06.656Z,9.00
2023-05-21T17:47:33.217Z,8.34
2023-05-21T17:49:59.693Z,7.95
2023-05-21T17:52:26.112Z,9.47
2023-05-21T17:54:52.600Z,9.98
2023-05-21T17:57:19.017Z,9.36
2023-05-21T17:59:45.401Z,9.87
2023-05-21T18:02:11.864Z,8.26
2023-05-21T18:04:38.489Z,8.09
2023-05-21T18:07:04.917Z,8.40
2023-05-21T18:09:31.367Z,7.90
2023-05-21T18:11:58.394Z,7.72
2023-05-21T18:14:26.239Z,7.51
2023-05-21T18:16:52.726Z,7.29
2023-05-21T18:19:19.212Z,7.31
2023-05-21T18:21:45.892Z,7.66
2023-05-21T18:24:12.408Z,7.47
2023-05-21T18:26:39.017Z,7.61
2023-05-21T18:29:05.506Z,7.51
2023-05-21T18:31:32.047Z,7.79
2023-05-21T18:33:58.584Z,7.40
2023-05-21T18:36:25.056Z,7.94
2023-05-21T18:38:51.487Z,8.69
2023-05-21T18:41:17.990Z,7.74
2023-05-21T18:43:44.388Z,7.60
2023-05-21T18:46:10.951Z,8.25
2023-05-21T18:48:37.463Z,7.53
2023-05-21T18:51:03.894Z,7.79
2023-05-21T18:53:30.319Z,7.81
2023-05-21T18:55:56.752Z,7.61
2023-05-21T18:58:23.149Z,7.61
2023-05-21T19:00:49.552Z,7.55
2023-05-21T19:03:15.914Z,7.78
2023-05-21T19:05:42.504Z,7.94
2023-05-21T19:08:08.950Z,7.44
2023-05-21T19:10:35.735Z,7.37
2023-05-21T19:13:06.134Z,7.73
2023-05-21T19:15:32.826Z,8.38
2023-05-21T19:17:59.337Z,12.61
2023-05-21T19:20:25.796Z,12.24
2023-05-21T19:22:52.202Z,14.91
2023-05-21T19:25:18.596Z,13.25
2023-05-21T19:27:44.979Z,10.92
2023-05-21T19:30:11.402Z,12.80
2023-05-21T19:32:37.904Z,10.64
2023-05-21T19:35:04.537Z,9.14
2023-05-21T19:37:30.966Z,7.49
2023-05-21T19:39:57.331Z,7.17
2023-05-21T19:42:23.724Z,5.79
2023-05-21T19:44:50.168Z,5.41
2023-05-21T19:47:16.579Z,5.22
2023-05-21T19:49:43.030Z,5.47
2023-05-21T19:52:09.437Z,5.50
2023-05-21T19:54:35.968Z,5.25
2023-05-21T19:57:02.410Z,5.45
2023-05-21T19:59:28.876Z,5.52
2023-05-21T20:01:55.313Z,5.12
2023-05-21T20:04:21.910Z,5.22
2023-05-21T20:06:48.483Z,5.53
2023-05-21T20:09:14.954Z,5.80
2023-05-21T20:11:41.371Z,5.63
2023-05-21T20:14:07.807Z,4.84
2023-05-21T20:16:34.281Z,5.88
2023-05-21T20:19:00.767Z,5.51
2023-05-21T20:21:27.273Z,5.50
2023-05-21T20:23:53.659Z,5.66
2023-05-21T20:26:20.041Z,5.63
2023-05-21T20:28:46.468Z,5.84
2023-05-21T20:31:12.903Z,5.61
2023-05-21T20:33:40.156Z,5.91
2023-05-21T20:36:06.556Z,6.03
2023-05-21T20:38:33.014Z,6.86
2023-05-21T20:40:59.443Z,7.34
2023-05-21T20:43:25.890Z,7.51
2023-05-21T20:45:52.394Z,7.33
2023-05-21T20:48:18.824Z,7.24
2023-05-21T20:50:45.260Z,7.38
2023-05-21T20:53:11.663Z,6.96
2023-05-21T20:55:38.050Z,7.14
2023-05-21T20:58:04.426Z,6.27
2023-05-21T21:00:30.923Z,6.35
2023-05-21T21:02:57.442Z,6.40
2023-05-21T21:05:23.930Z,6.98
2023-05-21T21:07:50.680Z,7.64
2023-05-21T21:10:18.207Z,9.13
2023-05-21T21:12:44.632Z,10.15
2023-05-21T21:15:11.032Z,10.50
2023-05-21T21:17:37.411Z,9.89
2023-05-21T21:20:03.840Z,9.45
2023-05-21T21:22:30.280Z,11.03
2023-05-21T21:24:56.680Z,11.72
2023-05-21T21:27:23.062Z,11.51
2023-05-21T21:29:49.442Z,11.24
2023-05-21T21:32:15.838Z,10.23
2023-05-21T21:34:42.239Z,9.26
2023-05-21T21:37:08.621Z,8.52
2023-05-21T21:39:35.095Z,6.64
2023-05-21T21:42:01.481Z,4.80
2023-05-21T21:44:27.891Z,4.54
2023-05-21T21:46:54.301Z,5.43
2023-05-21T21:49:20.699Z,5.67
2023-05-21T21:51:47.056Z,5.12
2023-05-21T21:54:13.435Z,4.94
2023-05-21T21:56:39.792Z,5.68
2023-05-21T21:59:06.169Z,7.18
2023-05-21T22:01:32.668Z,6.59
2023-05-21T22:03:59.148Z,5.85
2023-05-21T22:06:25.561Z,4.67
2023-05-21T22:08:51.989Z,4.31
2023-05-21T22:11:18.386Z,4.88
2023-05-21T22:13:44.771Z,5.30
2023-05-21T22:16:11.129Z,5.28
2023-05-21T22:18:40.947Z,4.99
2023-05-21T22:21:07.498Z,4.62
2023-05-21T22:23:33.890Z,3.84
2023-05-21T22:26:00.301Z,4.18
2023-05-21T22:28:26.691Z,4.21
2023-05-21T22:30:53.107Z,4.42
2023-05-21T22:33:19.616Z,4.43
2023-05-21T22:35:46.009Z,4.68
2023-05-21T22:38:12.382Z,5.72
2023-05-21T22:40:38.960Z,7.28
2023-05-21T22:43:05.550Z,8.47
2023-05-21T22:45:31.928Z,8.52
2023-05-21T22:47:58.385Z,9.23
2023-05-21T22:50:24.778Z,8.93
2023-05-21T22:52:51.172Z,6.95
2023-05-21T22:55:17.565Z,6.24
2023-05-21T22:57:43.976Z,5.15
2023-05-21T23:00:10.369Z,4.72
2023-05-21T23:02:36.828Z,4.77
2023-05-21T23:05:03.313Z,5.44
2023-05-21T23:07:29.863Z,5.79
2023-05-21T23:09:56.246Z,6.01
2023-05-21T23:12:22.622Z,5.91
2023-05-21T23:14:49.015Z,5.62
2023-05-21T23:17:15.421Z,5.73
2023-05-21T23:19:41.853Z,5.52
2023-05-21T23:22:08.249Z,5.54
2023-05-21T23:24:34.612Z,5.53
2023-05-21T23:27:00.989Z,5.79
2023-05-21T23:29:27.644Z,6.28
2023-05-21T23:31:54.108Z,6.94
2023-05-21T23:34:20.523Z,6.85
2023-05-21T23:36:46.916Z,7.26
2023-05-21T23:39:13.341Z,6.63
2023-05-21T23:41:39.719Z,6.74
2023-05-21T23:44:06.192Z,6.39
2023-05-21T23:46:32.598Z,6.48
2023-05-21T23:48:58.972Z,6.73
2023-05-21T23:51:25.337Z,7.34
2023-05-21T23:53:51.753Z,7.58
2023-05-21T23:56:18.130Z,6.67
2023-05-21T23:58:44.533Z,6.52
